createdAt,value
2022-10-17T00:01:43.679Z,11.15
2022-10-17T00:06:43.627Z,11.25
2022-10-17T00:11:43.603Z,11.29
2022-10-17T00:16:43.621Z,11.36
2022-10-17T00:21:43.601Z,11.22
2022-10-17T00:26:43.596Z,11.04
2022-10-17T00:31:43.616Z,10.91
2022-10-17T00:36:43.572Z,10.84
2022-10-17T00:41:43.586Z,10.79
2022-10-17T00:46:43.589Z,10.71
2022-10-17T00:51:43.573Z,10.63
2022-10-17T00:56:43.552Z,10.55
2022-10-17T01:01:43.592Z,10.48
2022-10-17T01:06:43.563Z,10.38
2022-10-17T01:11:43.550Z,10.3
2022-10-17T01:16:43.553Z,10.25
2022-10-17T01:21:43.549Z,10.21
2022-10-17T01:26:43.527Z,10.18
2022-10-17T01:31:43.518Z,10.28
2022-10-17T01:36:43.522Z,10.21
2022-10-17T01:41:43.517Z,10.18
2022-10-17T01:46:43.530Z,10.1
2022-10-17T01:51:43.521Z,10.02
2022-10-17T01:56:43.508Z,9.91
2022-10-17T02:01:43.541Z,9.87
2022-10-17T02:06:43.481Z,9.91
2022-10-17T02:11:43.491Z,9.88
2022-10-17T02:16:43.480Z,9.78
2022-10-17T02:21:43.467Z,9.77
2022-10-17T02:26:43.483Z,9.77
2022-10-17T02:31:43.471Z,9.67
2022-10-17T02:36:43.455Z,9.54
2022-10-17T02:41:43.455Z,9.45
2022-10-17T02:46:43.456Z,9.43
2022-10-17T02:56:43.453Z,9.41
2022-10-17T03:01:43.472Z,9.36
2022-10-17T03:06:43.438Z,9.28
2022-10-17T03:11:43.450Z,9.22
2022-10-17T03:16:43.415Z,9.17
2022-10-17T03:21:43.421Z,9.17
2022-10-17T03:26:43.464Z,9.21
2022-10-17T03:31:43.412Z,9.23
2022-10-17T03:36:43.406Z,9.29
2022-10-17T03:41:43.405Z,9.36
2022-10-17T03:56:43.431Z,9.41
2022-10-17T04:01:43.453Z,9.54
2022-10-17T04:16:43.363Z,9.6
2022-10-17T04:26:43.361Z,9.75
2022-10-17T04:31:43.359Z,9.77
2022-10-17T04:36:43.340Z,9.66
2022-10-17T04:41:43.352Z,9.6
2022-10-17T04:46:43.345Z,9.58
2022-10-17T04:51:43.340Z,9.54
2022-10-17T04:56:43.335Z,9.55
2022-10-17T05:01:43.328Z,9.53
2022-10-17T05:06:43.311Z,9.47
2022-10-17T05:11:43.345Z,9.38
2022-10-17T05:16:43.305Z,9.29
2022-10-17T05:21:43.311Z,9.24
2022-10-17T05:26:43.297Z,9.26
2022-10-17T05:31:43.296Z,9.27
2022-10-17T05:36:43.307Z,9.28
2022-10-17T05:41:43.281Z,9.26
2022-10-17T05:46:43.277Z,9.28
2022-10-17T05:51:43.311Z,9.34
2022-10-17T05:56:43.293Z,9.45
2022-10-17T06:01:43.293Z,9.67
2022-10-17T06:06:43.323Z,9.77
2022-10-17T06:11:43.275Z,9.87
2022-10-17T06:16:43.255Z,10
2022-10-17T06:21:43.257Z,10.06
2022-10-17T06:26:43.270Z,10.25
2022-10-17T06:31:43.245Z,10.35
2022-10-17T06:36:43.287Z,10.46
2022-10-17T06:41:43.226Z,10.57
2022-10-17T06:46:43.217Z,10.63
2022-10-17T06:51:43.224Z,10.73
2022-10-17T06:56:43.212Z,10.82
2022-10-17T07:01:44.609Z,11.03
2022-10-17T07:06:43.203Z,11.29
2022-10-17T07:11:43.213Z,11.46
2022-10-17T07:16:43.196Z,11.54
2022-10-17T07:21:43.187Z,11.79
2022-10-17T07:26:43.182Z,12.06
2022-10-17T07:31:43.169Z,12.27
2022-10-17T07:36:43.172Z,12.55
2022-10-17T07:41:43.159Z,12.82
2022-10-17T07:46:43.161Z,12.99
2022-10-17T07:51:43.220Z,13.25
2022-10-17T07:56:43.157Z,13.5
2022-10-17T08:01:43.157Z,13.65
2022-10-17T08:06:43.214Z,13.85
2022-10-17T08:11:43.147Z,14
2022-10-17T08:16:43.236Z,14.13
2022-10-17T08:21:43.126Z,14.3
2022-10-17T08:26:44.003Z,14.49
2022-10-17T08:31:46.427Z,14.7
2022-10-17T08:36:43.098Z,14.9
2022-10-17T08:41:43.099Z,15.14
2022-10-17T08:46:43.131Z,15.38
2022-10-17T08:51:43.095Z,15.39
2022-10-17T08:56:48.427Z,15.66
2022-10-17T09:01:43.087Z,15.82
2022-10-17T09:06:43.066Z,15.98
2022-10-17T09:11:43.076Z,16.19
2022-10-17T09:16:43.061Z,16.33
2022-10-17T09:21:43.068Z,16.48
2022-10-17T09:26:43.061Z,16.66
2022-10-17T09:31:43.080Z,16.82
2022-10-17T09:36:43.036Z,17.02
2022-10-17T09:41:45.783Z,17.18
2022-10-17T09:46:43.050Z,17.26
2022-10-17T09:51:43.021Z,17.35
2022-10-17T09:56:43.021Z,17.5
2022-10-17T10:01:43.001Z,17.55
2022-10-17T10:06:43.003Z,17.64
2022-10-17T10:11:42.984Z,17.7
2022-10-17T10:16:42.983Z,17.8
2022-10-17T10:21:45.118Z,17.85
2022-10-17T10:26:42.970Z,17.91
2022-10-17T10:31:42.968Z,18
2022-10-17T10:36:42.993Z,18.12
2022-10-17T10:41:42.963Z,18.19
2022-10-17T10:46:42.955Z,18.25
2022-10-17T10:51:42.956Z,18.35
2022-10-17T11:01:42.915Z,18.46
2022-10-17T11:06:42.913Z,18.55
2022-10-17T11:11:42.923Z,18.66
2022-10-17T11:16:42.899Z,18.79
2022-10-17T11:21:42.938Z,18.91
2022-10-17T11:26:42.908Z,19.05
2022-10-17T11:31:42.929Z,19.12
2022-10-17T11:36:42.876Z,19.2
2022-10-17T11:41:42.898Z,19.3
2022-10-17T11:46:42.866Z,19.38
2022-10-17T11:52:00.163Z,19.48
2022-10-17T11:56:43.073Z,19.6
2022-10-17T12:01:42.851Z,19.69
2022-10-17T12:06:42.836Z,19.74
2022-10-17T12:11:42.844Z,19.81
2022-10-17T12:21:43.520Z,20.41
2022-10-17T12:26:42.831Z,20.62
2022-10-17T12:31:42.825Z,20.57
2022-10-17T12:36:42.814Z,20.63
2022-10-17T12:41:42.798Z,20.71
2022-10-17T12:46:42.802Z,20.79
2022-10-17T12:51:42.783Z,20.98
2022-10-17T12:56:42.802Z,20.98
2022-10-17T13:01:42.797Z,20.98
2022-10-17T13:06:42.771Z,21
2022-10-17T13:11:42.777Z,21.08
2022-10-17T13:16:42.746Z,21.07
2022-10-17T13:26:42.742Z,21.28
2022-10-17T13:31:42.738Z,21.39
2022-10-17T13:41:42.746Z,21.56
2022-10-17T13:46:42.726Z,21.55
2022-10-17T13:51:42.730Z,21.54
2022-10-17T13:56:42.757Z,21.54
2022-10-17T14:01:42.689Z,21.58
2022-10-17T14:06:43.975Z,21.58
2022-10-17T14:16:42.685Z,21.73
2022-10-17T14:21:44.454Z,21.81
2022-10-17T14:26:42.663Z,21.74
2022-10-17T14:36:42.661Z,21.7
2022-10-17T14:41:43.702Z,21.62
2022-10-17T14:46:42.658Z,21.56
2022-10-17T14:51:50.150Z,21.51
2022-10-17T14:56:42.621Z,21.38
2022-10-17T15:01:42.627Z,21.25
2022-10-17T15:06:42.613Z,21.11
2022-10-17T15:11:42.623Z,21.09
2022-10-17T15:16:42.605Z,20.98
2022-10-17T15:21:46.223Z,20.98
2022-10-17T15:26:42.687Z,20.84
2022-10-17T15:31:42.590Z,20.66
2022-10-17T15:36:42.585Z,20.06
2022-10-17T15:41:42.570Z,19.44
2022-10-17T15:46:42.548Z,18.94
2022-10-17T15:51:42.575Z,18.39
2022-10-17T15:56:42.548Z,17.94
2022-10-17T16:01:42.570Z,17.66
2022-10-17T16:06:42.568Z,17.28
2022-10-17T16:11:42.537Z,16.95
2022-10-17T16:16:42.518Z,16.63
2022-10-17T16:21:42.526Z,16.33
2022-10-17T16:26:42.523Z,16.04
2022-10-17T16:31:42.503Z,15.73
2022-10-17T16:36:42.506Z,15.45
2022-10-17T16:46:42.527Z,15.07
2022-10-17T16:51:42.521Z,14.9
2022-10-17T16:56:42.478Z,14.77
2022-10-17T17:01:42.485Z,14.58
2022-10-17T17:06:42.526Z,14.35
2022-10-17T17:11:42.467Z,14.15
2022-10-17T17:16:42.453Z,13.99
2022-10-17T17:21:42.450Z,13.81
2022-10-17T17:26:42.443Z,13.77
2022-10-17T17:31:42.443Z,13.61
2022-10-17T17:36:42.441Z,13.53
2022-10-17T17:41:42.415Z,13.52
2022-10-17T17:46:42.422Z,13.41
2022-10-17T17:51:42.419Z,13.28
2022-10-17T18:01:42.427Z,13.01
2022-10-17T18:06:42.401Z,12.99
2022-10-17T18:11:42.393Z,12.95
2022-10-17T18:16:42.388Z,12.86
2022-10-17T18:36:42.369Z,12.59
2022-10-17T18:46:42.366Z,12.54
2022-10-17T19:06:42.327Z,12.28
2022-10-17T19:11:42.347Z,12.26
2022-10-17T19:16:42.324Z,12.22
2022-10-17T19:21:42.319Z,12.1
2022-10-17T19:26:42.305Z,12.07
2022-10-17T19:31:42.368Z,11.98
2022-10-17T19:36:42.304Z,11.92
2022-10-17T19:41:42.324Z,11.88
2022-10-17T19:46:42.305Z,11.92
2022-10-17T19:51:42.295Z,11.98
2022-10-17T19:56:42.269Z,11.9
2022-10-17T20:01:42.287Z,11.77
2022-10-17T20:06:42.262Z,11.74
2022-10-17T20:11:42.263Z,11.66
2022-10-17T20:16:42.262Z,11.75
2022-10-17T20:21:42.260Z,11.65
2022-10-17T20:26:42.244Z,11.56
2022-10-17T20:31:42.254Z,11.47
2022-10-17T20:36:42.259Z,11.41
2022-10-17T20:41:42.224Z,11.39
2022-10-17T20:46:48.588Z,11.44
2022-10-17T20:51:42.230Z,11.53
2022-10-17T20:56:42.198Z,11.44
2022-10-17T21:01:42.279Z,11.47
2022-10-17T21:06:42.210Z,11.39
2022-10-17T21:11:42.197Z,11.24
2022-10-17T21:16:42.210Z,11.15
2022-10-17T21:21:42.219Z,11.14
2022-10-17T21:26:42.172Z,11.04
2022-10-17T21:31:42.187Z,10.96
2022-10-17T21:36:42.179Z,10.91
2022-10-17T21:41:42.156Z,10.88
2022-10-17T21:46:42.155Z,10.88
2022-10-17T21:51:42.153Z,10.82
2022-10-17T21:56:42.141Z,10.85
2022-10-17T22:12:02.173Z,10.77
2022-10-17T22:16:42.151Z,10.76
2022-10-17T22:21:42.124Z,10.69
2022-10-17T22:26:42.126Z,10.69
2022-10-17T22:31:42.108Z,10.63
2022-10-17T22:36:42.117Z,10.57
2022-10-17T22:41:42.092Z,10.45
2022-10-17T22:46:42.093Z,10.4
2022-10-17T22:51:42.106Z,10.44
2022-10-17T22:56:42.097Z,10.38
2022-10-17T23:01:42.107Z,10.4
2022-10-17T23:06:42.096Z,10.37
2022-10-17T23:11:42.092Z,10.32
2022-10-17T23:16:42.066Z,10.23
2022-10-17T23:21:42.072Z,10.21
2022-10-17T23:26:42.063Z,10.19
2022-10-17T23:31:42.044Z,10.17
2022-10-17T23:36:42.050Z,10.18
2022-10-17T23:41:42.026Z,10.13
2022-10-17T23:46:42.033Z,10.14
2022-10-17T23:51:42.045Z,10.14
2022-10-17T23:56:42.048Z,10.08
